x

Southern Lake Huron (45149) Wave Buoy

3:00am - Sun 30th Apr 2017 All times are CDT. -5 hours from GMT.

  • Sig Wave height 2.0ft
  • Peak Period 5s
  • Wind
    9mph
  • Sea Temp 38°f
  • Air Temp 40°f
  • Sea Pressure 1021.5mb
  • Southern Lake Huron
  • Southern Lake Huron

More Historic Weather Station data

Upgrade to MSW Pro to gain access to the past 30 days of data for over 8000 Wavebouys and Weather Stations around the globe.

Join Pro

Comparision Forecast

View Surf forecast
   
Sun 04/30 3:00am 2ft 5s 9
mph
1021.5mb 38f 40f
2:00am 2ft 5s 13 16 mph 1020.6mb 37f 40f
1:00am 2.5ft 5s 18 20 mph 1021.3mb 37f 40f
12:00am 2.5ft 5s 16 18 mph 1022.7mb 37f 40f
Sat 04/29 11:00pm 2.5ft 6s 16 18 mph 1024.4mb 37f 39f
10:00pm 3ft 6s 13 16 mph 1025.6mb 37f 39f
9:00pm 3.5ft 6s 13 16 mph 1026.6mb 37f 39f
8:00pm 3.5ft 6s 13 16 mph 1025.5mb 37f 38f
7:00pm 4ft 6s 7 9 mph 1025.3mb 37f 38f
6:00pm 4ft 6s 13 18 mph 1024.3mb 37f 38f
5:00pm 4ft 6s 16 18 mph 1024mb 37f 37f
4:00pm 3.5ft 6s 13 18 mph 1024.4mb 37f 38f
3:00pm 3.5ft 5s 11 13 mph 1025.2mb 37f 38f
2:00pm 3.5ft 5s 13
mph
1025.6mb 37f 38f
1:00pm  -   -  11
mph
1025.5mb 35f 38f
12:00pm 4ft 5s 18 20 mph 1024.5mb 35f 37f
10:00am 3ft 5s 20 22 mph 1023.3mb 35f 38f
9:00am 3ft 5s 16
mph
1022.3mb 36f 38f
8:00am 3ft 4s 16 20 mph 1022.5mb 36f 38f
7:00am 3ft 5s 16 20 mph 1020.9mb 36f 38f
6:00am 3ft 5s 16 20 mph 1019.9mb 34f 38f
5:00am 3ft 4s 18 20 mph 1019.1mb 33f 38f
4:00am 2.5ft 4s 16 20 mph 1018.2mb 37f 38f
3:00am 2.5ft 4s 13 16 mph 1018.2mb 37f 38f
2:00am 2.5ft 4s 16 20 mph 1017mb 37f 39f
1:00am  -   -  18
mph
- - -
12:00am 1ft 3s 18 20 mph 1016.4mb 37f 38f
Fri 04/28 11:00pm 1ft 15s 9
mph
1014.8mb 38f 43f
10:00pm 1ft 3s 11 13 mph 1014.4mb 32f 45f
9:00pm 1ft 4s 4
mph
1014mb 37f 43f
8:00pm 1.3ft 4s 7 9 mph 1014mb 37f 43f
7:00pm 1.3ft 4s 13
mph
1013.7mb 37f 45f
6:00pm 1.3ft 3s 13 16 mph 1013.7mb 37f 46f
5:00pm 1.3ft 3s 11 13 mph 1014.2mb 37f 45f
4:00pm 1.3ft 2s 16 18 mph 1014.7mb 37f 46f
3:00pm 1ft 5s 13 16 mph 1014.9mb 37f 46f
2:00pm 1ft 5s 11
mph
1014.8mb 37f 45f
1:00pm 1ft 5s 9 11 mph 1014.5mb 37f 44f
12:00pm 1ft 6s 11
mph
1015mb 37f 44f
11:00am 1ft 3s 9 11 mph 1015.4mb 38f 43f
10:00am 1.3ft 3s 11 13 mph 1015.2mb 38f 42f
9:00am 1.3ft 3s 9
mph
1014.8mb 38f 41f
8:00am 1.3ft 3s 9 11 mph 1014.6mb 38f 42f
7:00am 1ft 3s 16 20 mph 1013.9mb 37f 43f
6:00am 1ft 3s 9 16 mph 1013.3mb 38f 41f
4:00am 1.6ft 3s 4
mph
1011.8mb 38f 41f
3:00am 1.6ft 3s 9 11 mph 1011.4mb 38f 43f
2:00am 2ft 4s 11 13 mph 1011.2mb 37f 44f
1:00am 2ft 4s 11 13 mph 1010.2mb 37f 44f
12:00am 2.5ft 4s 11
mph
1010.1mb 38f 43f
Thu 04/27 11:00pm 2.5ft 4s 16 18 mph 1008.8mb 38f 44f
10:00pm 2.5ft 4s 13 18 mph 1007.6mb 38f 44f
9:00pm 2.5ft 4s 11 16 mph 1006.2mb 38f 44f
8:00pm 1.3ft 3s 13 16 mph 1004.3mb 38f 45f
7:00pm 1.3ft 4s 18 22 mph 1002.4mb 38f 48f
6:00pm 1.3ft 4s 13 16 mph 1001.1mb 38f 48f
5:00pm 1.6ft 4s 11 13 mph 999.8mb 38f 46f
4:00pm 2.5ft 4s 13 16 mph 999.3mb 38f 48f
3:00pm 1.6ft 4s 13 16 mph 999.1mb 38f 47f
2:00pm 1.6ft 3s 9
mph
998.9mb 38f 46f
1:00pm 1ft 3s 27 49 mph 999mb 38f 51f
12:00pm 1ft 3s 11 13 mph 998.4mb 35f 48f
11:00am 1.3ft 3s 11 13 mph 999.6mb 38f 47f
10:00am 1.3ft 4s 9 11 mph 999.7mb 38f 46f
9:00am 1.6ft 3s 11
mph
- 38f 47f
8:00am 1.6ft 3s 13 16 mph 999.6mb 38f 48f
7:00am 1.6ft 3s 16 18 mph 999.7mb 38f 47f
5:00am 1.6ft 3s 13 16 mph 999.5mb 38f 46f
4:00am 1.3ft 3s 13 16 mph - 38f 46f
3:00am 1.3ft 3s 13 16 mph 1000.4mb 38f 47f
2:00am 1.3ft 3s 9 11 mph 1000.9mb 38f 49f
1:00am 1.6ft 4s 11 18 mph 1001.6mb 38f 53f
12:00am 2ft 4s 16 18 mph 1001.6mb 38f 48f
Wed 04/26 11:00pm 1.3ft 3s 16 18 mph 1001.2mb - 48f
10:00pm 1.3ft 3s 16 18 mph 1001.6mb 37f 48f
9:00pm 1.3ft 3s 13 18 mph 1001.5mb 37f 49f
8:00pm 1.3ft 3s 13 16 mph 1001.1mb 38f 48f
7:00pm 1.3ft 3s 13 16 mph 1001.2mb 37f 49f
6:00pm 1.3ft 4s 11 13 mph 1001.9mb 37f 48f
5:00pm 1.3ft 4s 11
mph
1001.9mb 38f 47f
4:00pm 1.3ft 3s 9 11 mph 1002.2mb 38f 46f
3:00pm 1.3ft 3s 9 11 mph 1001.8mb 38f 47f
2:00pm 1ft 3s 16 18 mph 1001.8mb 38f 49f
1:00pm 1ft 3s 13
mph
1003.3mb 38f 47f
12:00pm 0.7ft 2s 9 11 mph 1004.7mb 38f 46f
11:00am 0.7ft 2s 9 11 mph 1005.9mb 38f 46f
10:00am 0.7ft 2s 11
mph
1005.7mb 38f 45f